createdAt,value
2018-07-25T00:00:12.355Z,990.11
2018-07-25T00:01:12.353Z,990.09
2018-07-25T00:02:12.345Z,990.14
2018-07-25T00:03:12.340Z,990.18
2018-07-25T00:04:12.338Z,990.10
2018-07-25T00:05:12.333Z,990.13
2018-07-25T00:06:12.328Z,990.13
2018-07-25T00:07:12.324Z,990.13
2018-07-25T00:08:12.320Z,990.15
2018-07-25T00:09:12.327Z,990.15
2018-07-25T00:10:12.311Z,990.16
2018-07-25T00:11:12.306Z,990.17
2018-07-25T00:12:12.302Z,990.16
2018-07-25T00:13:12.300Z,990.15
2018-07-25T00:14:12.294Z,990.17
2018-07-25T00:15:12.288Z,990.17
2018-07-25T00:16:12.286Z,990.19
2018-07-25T00:17:12.283Z,990.17
2018-07-25T00:18:12.280Z,990.16
2018-07-25T00:19:12.273Z,990.22
2018-07-25T00:20:12.268Z,990.20
2018-07-25T00:21:12.266Z,990.17
2018-07-25T00:22:12.260Z,990.16
2018-07-25T00:23:12.259Z,990.17
2018-07-25T00:24:12.253Z,990.21
2018-07-25T00:25:12.249Z,990.13
2018-07-25T00:26:12.243Z,990.16
2018-07-25T00:27:12.240Z,990.15
2018-07-25T00:28:12.235Z,990.17
2018-07-25T00:29:12.236Z,990.18
2018-07-25T00:30:12.227Z,990.17
2018-07-25T00:31:12.223Z,990.16
2018-07-25T00:32:12.219Z,990.20
2018-07-25T00:33:12.216Z,990.19
2018-07-25T00:34:12.210Z,990.23
2018-07-25T00:35:12.207Z,990.20
2018-07-25T00:36:12.209Z,990.19
2018-07-25T00:37:12.201Z,990.22
2018-07-25T00:38:12.192Z,990.24
2018-07-25T00:39:12.190Z,990.20
2018-07-25T00:40:12.185Z,990.19
2018-07-25T00:41:12.181Z,990.21
2018-07-25T00:42:12.176Z,990.20
2018-07-25T00:43:12.173Z,990.21
2018-07-25T00:44:12.169Z,990.17
2018-07-25T00:45:12.164Z,990.24
2018-07-25T00:46:12.160Z,990.21
2018-07-25T00:47:12.156Z,990.19
2018-07-25T00:48:12.155Z,990.19
2018-07-25T00:49:12.149Z,990.20
2018-07-25T00:50:12.144Z,990.18
2018-07-25T00:51:12.141Z,990.16
2018-07-25T00:52:12.136Z,990.16
2018-07-25T00:53:12.131Z,990.17
2018-07-25T00:54:12.128Z,990.14
2018-07-25T00:55:12.123Z,990.16
2018-07-25T00:56:12.118Z,990.19
2018-07-25T00:57:12.114Z,990.19
2018-07-25T00:58:12.109Z,990.19
2018-07-25T00:59:12.106Z,990.17
2018-07-25T01:00:12.101Z,990.18
2018-07-25T01:01:12.100Z,990.21
2018-07-25T01:02:12.092Z,990.19
2018-07-25T01:03:12.090Z,990.22
2018-07-25T01:04:12.119Z,990.21
2018-07-25T01:05:12.082Z,990.22
2018-07-25T01:06:12.076Z,990.23
2018-07-25T01:07:12.072Z,990.25
2018-07-25T01:08:12.068Z,990.29
2018-07-25T01:09:12.065Z,990.29
2018-07-25T01:10:12.059Z,990.27
2018-07-25T01:11:12.054Z,990.28
2018-07-25T01:12:12.046Z,990.27
2018-07-25T01:13:12.045Z,990.26
2018-07-25T01:14:12.041Z,990.27
2018-07-25T01:15:12.038Z,990.33
2018-07-25T01:16:12.034Z,990.30
2018-07-25T01:17:12.033Z,990.31
2018-07-25T01:18:12.025Z,990.33
2018-07-25T01:19:12.022Z,990.31
2018-07-25T01:20:12.021Z,990.33
2018-07-25T01:21:12.015Z,990.36
2018-07-25T01:22:12.048Z,990.38
2018-07-25T01:23:12.012Z,990.35
2018-07-25T01:24:12.000Z,990.33
2018-07-25T01:25:11.996Z,990.36
2018-07-25T01:26:11.995Z,990.34
2018-07-25T01:27:11.989Z,990.39
2018-07-25T01:28:11.983Z,990.34
2018-07-25T01:29:11.980Z,990.36
2018-07-25T01:30:11.975Z,990.38
2018-07-25T01:31:11.975Z,990.38
2018-07-25T01:32:11.965Z,990.39
2018-07-25T01:33:11.964Z,990.39
2018-07-25T01:34:11.961Z,990.43
2018-07-25T01:35:11.956Z,990.42
2018-07-25T01:36:11.950Z,990.49
2018-07-25T01:37:11.947Z,990.42
2018-07-25T01:38:11.946Z,990.39
2018-07-25T01:39:11.937Z,990.46
2018-07-25T01:40:11.935Z,990.40
2018-07-25T01:41:11.931Z,990.36
2018-07-25T01:42:11.922Z,990.39
2018-07-25T01:43:11.920Z,990.35
2018-07-25T01:44:11.917Z,990.39
2018-07-25T01:45:11.914Z,990.36
2018-07-25T01:46:11.909Z,990.37
2018-07-25T01:47:11.904Z,990.37
2018-07-25T01:48:11.902Z,990.38
2018-07-25T01:49:11.897Z,990.35
2018-07-25T01:50:11.891Z,990.34
2018-07-25T01:51:11.889Z,990.30
2018-07-25T01:52:11.883Z,990.33
2018-07-25T01:53:11.879Z,990.31
2018-07-25T01:54:11.875Z,990.34
2018-07-25T01:55:11.871Z,990.34
2018-07-25T01:56:11.867Z,990.32
2018-07-25T01:57:11.862Z,990.30
2018-07-25T01:58:11.858Z,990.31
2018-07-25T01:59:11.853Z,990.35
2018-07-25T02:00:11.847Z,990.32
2018-07-25T02:01:11.846Z,990.29
2018-07-25T02:02:11.842Z,990.28
2018-07-25T02:03:11.837Z,990.29
2018-07-25T02:04:11.832Z,990.28
2018-07-25T02:05:11.829Z,990.30
2018-07-25T02:06:11.824Z,990.29
2018-07-25T02:07:11.821Z,990.27
2018-07-25T02:08:11.919Z,990.34
2018-07-25T02:09:11.815Z,990.36
2018-07-25T02:10:11.810Z,990.30
2018-07-25T02:11:11.802Z,990.29
2018-07-25T02:12:11.799Z,990.34
2018-07-25T02:13:11.795Z,990.39
2018-07-25T02:14:11.790Z,990.34
2018-07-25T02:15:11.785Z,990.39
2018-07-25T02:16:11.784Z,990.36
2018-07-25T02:17:11.777Z,990.38
2018-07-25T02:18:11.773Z,990.43
2018-07-25T02:19:11.769Z,990.40
2018-07-25T02:20:11.765Z,990.45
2018-07-25T02:21:11.761Z,990.45
2018-07-25T02:22:11.756Z,990.44
2018-07-25T02:23:11.754Z,990.45
2018-07-25T02:24:11.750Z,990.44
2018-07-25T02:25:11.744Z,990.47
2018-07-25T02:26:11.740Z,990.48
2018-07-25T02:27:11.735Z,990.45
2018-07-25T02:28:11.732Z,990.46
2018-07-25T02:29:11.731Z,990.47
2018-07-25T02:30:11.727Z,990.47
2018-07-25T02:31:11.718Z,990.48
2018-07-25T02:32:11.716Z,990.50
2018-07-25T02:33:11.715Z,990.46
2018-07-25T02:34:11.706Z,990.50
2018-07-25T02:35:11.702Z,990.47
2018-07-25T02:36:11.701Z,990.50
2018-07-25T02:37:11.692Z,990.48
2018-07-25T02:38:11.697Z,990.46
2018-07-25T02:39:11.710Z,990.46
2018-07-25T02:40:11.681Z,990.43
2018-07-25T02:41:11.678Z,990.45
2018-07-25T02:42:11.673Z,990.46
2018-07-25T02:43:11.677Z,990.47
2018-07-25T02:44:11.666Z,990.46
2018-07-25T02:45:11.662Z,990.41
2018-07-25T02:46:11.656Z,990.47
2018-07-25T02:47:11.652Z,990.45
2018-07-25T02:48:11.652Z,990.47
2018-07-25T02:49:11.643Z,990.45
2018-07-25T02:50:11.638Z,990.48
2018-07-25T02:51:11.635Z,990.45
2018-07-25T02:52:11.632Z,990.43
2018-07-25T02:53:11.627Z,990.46
2018-07-25T02:54:11.616Z,990.44
2018-07-25T02:55:11.617Z,990.46
2018-07-25T02:56:11.611Z,990.48
2018-07-25T02:57:11.609Z,990.49
2018-07-25T02:58:11.608Z,990.51
2018-07-25T02:59:11.601Z,990.50
2018-07-25T03:00:11.596Z,990.48
2018-07-25T03:01:11.594Z,990.50
2018-07-25T03:02:11.588Z,990.54
2018-07-25T03:03:11.584Z,990.53
2018-07-25T03:04:11.578Z,990.54
2018-07-25T03:05:11.576Z,990.57
2018-07-25T03:06:11.570Z,990.54
2018-07-25T03:07:11.565Z,990.51
2018-07-25T03:08:11.561Z,990.50
2018-07-25T03:09:11.661Z,990.55
2018-07-25T03:10:11.555Z,990.55
2018-07-25T03:11:11.549Z,990.54
2018-07-25T03:12:11.545Z,990.55
2018-07-25T03:13:11.541Z,990.56
2018-07-25T03:14:11.539Z,990.58
2018-07-25T03:15:11.531Z,990.59
2018-07-25T03:16:11.526Z,990.60
2018-07-25T03:17:11.526Z,990.60
2018-07-25T03:18:11.519Z,990.64
2018-07-25T03:19:11.516Z,990.64
2018-07-25T03:20:11.510Z,990.64
2018-07-25T03:21:11.507Z,990.63
2018-07-25T03:22:11.500Z,990.70
2018-07-25T03:23:11.496Z,990.68
2018-07-25T03:24:11.491Z,990.67
2018-07-25T03:25:11.514Z,990.73
2018-07-25T03:26:11.487Z,990.71
2018-07-25T03:27:11.480Z,990.69
2018-07-25T03:28:11.477Z,990.75
2018-07-25T03:29:11.495Z,990.71
2018-07-25T03:30:11.466Z,990.73
2018-07-25T03:31:11.468Z,990.76
2018-07-25T03:32:11.460Z,990.71
2018-07-25T03:33:11.456Z,990.75
2018-07-25T03:34:11.447Z,990.78
2018-07-25T03:35:11.445Z,990.78
2018-07-25T03:36:11.442Z,990.76
2018-07-25T03:37:11.438Z,990.79
2018-07-25T03:38:11.455Z,990.82
2018-07-25T03:39:11.429Z,990.79
2018-07-25T03:40:11.426Z,990.79
2018-07-25T03:41:11.419Z,990.80
2018-07-25T03:42:11.414Z,990.81
2018-07-25T03:43:11.433Z,990.81
2018-07-25T03:44:11.405Z,990.80
2018-07-25T03:45:11.400Z,990.86
2018-07-25T03:46:11.398Z,990.83
2018-07-25T03:47:11.391Z,990.82
2018-07-25T03:48:11.387Z,990.82
2018-07-25T03:49:11.384Z,990.84
2018-07-25T03:50:11.377Z,990.81
2018-07-25T03:51:11.371Z,990.82
2018-07-25T03:52:11.366Z,990.79
2018-07-25T03:53:11.363Z,990.83
2018-07-25T03:54:11.359Z,990.80
2018-07-25T03:55:11.352Z,990.82
2018-07-25T03:56:11.346Z,990.81
2018-07-25T03:57:11.341Z,990.82
2018-07-25T03:58:11.334Z,990.78
2018-07-25T03:59:11.329Z,990.84
2018-07-25T04:00:11.325Z,990.77
2018-07-25T04:01:11.321Z,990.83
2018-07-25T04:02:11.313Z,990.83
2018-07-25T04:03:11.309Z,990.82
2018-07-25T04:04:11.303Z,990.85
2018-07-25T04:05:11.299Z,990.88
2018-07-25T04:06:11.294Z,990.87
2018-07-25T04:07:11.287Z,990.92
2018-07-25T04:08:11.337Z,990.93
2018-07-25T04:09:11.320Z,990.96
2018-07-25T04:10:11.271Z,990.91
2018-07-25T04:11:11.268Z,990.99
2018-07-25T04:12:11.260Z,991.02
2018-07-25T04:13:11.254Z,991.04
2018-07-25T04:14:11.248Z,991.04
2018-07-25T04:15:11.243Z,991.01
2018-07-25T04:16:11.240Z,991.05
2018-07-25T04:17:11.234Z,991.03
2018-07-25T04:18:11.227Z,991.07
2018-07-25T04:19:11.222Z,991.08
2018-07-25T04:20:11.216Z,991.05
2018-07-25T04:21:11.211Z,991.10
2018-07-25T04:22:11.204Z,991.06
2018-07-25T04:23:11.200Z,991.08
2018-07-25T04:24:11.194Z,991.07
2018-07-25T04:25:11.190Z,991.06
2018-07-25T04:26:11.183Z,991.05
2018-07-25T04:27:11.180Z,991.06
2018-07-25T04:28:11.173Z,991.06
2018-07-25T04:29:11.167Z,991.08
2018-07-25T04:30:11.160Z,991.06
2018-07-25T04:31:11.159Z,991.05
2018-07-25T04:32:11.149Z,991.06
2018-07-25T04:33:11.148Z,991.08
2018-07-25T04:34:11.137Z,991.07
2018-07-25T04:35:11.136Z,991.09
2018-07-25T04:36:11.126Z,991.05
2018-07-25T04:37:11.122Z,991.09
2018-07-25T04:38:11.117Z,991.08
2018-07-25T04:39:11.113Z,991.10
2018-07-25T04:40:11.127Z,991.10
2018-07-25T04:41:11.103Z,991.10
2018-07-25T04:42:11.093Z,991.14
2018-07-25T04:43:11.088Z,991.13
2018-07-25T04:44:11.084Z,991.15
2018-07-25T04:45:11.077Z,991.16
2018-07-25T04:46:11.102Z,991.18
2018-07-25T04:47:11.065Z,991.21
2018-07-25T04:48:11.059Z,991.18
2018-07-25T04:49:11.055Z,991.20
2018-07-25T04:50:11.050Z,991.20
2018-07-25T04:51:11.045Z,991.19
2018-07-25T04:52:11.037Z,991.16
2018-07-25T04:53:11.033Z,991.19
2018-07-25T04:54:11.028Z,991.16
2018-07-25T04:55:11.020Z,991.18
2018-07-25T04:56:11.074Z,991.20
2018-07-25T04:57:11.009Z,991.22
2018-07-25T04:58:11.004Z,991.21
2018-07-25T04:59:11.000Z,991.22
2018-07-25T05:00:10.992Z,991.23
2018-07-25T05:01:10.987Z,991.25
2018-07-25T05:02:10.981Z,991.26
2018-07-25T05:03:10.977Z,991.25
2018-07-25T05:04:10.970Z,991.27
2018-07-25T05:05:10.965Z,991.25
2018-07-25T05:06:10.957Z,991.28
2018-07-25T05:07:11.010Z,991.25
2018-07-25T05:08:10.947Z,991.25
2018-07-25T05:09:10.946Z,991.26
2018-07-25T05:10:10.935Z,991.27
2018-07-25T05:11:10.929Z,991.27
2018-07-25T05:12:10.923Z,991.26
2018-07-25T05:13:10.917Z,991.31
2018-07-25T05:14:10.917Z,991.31
2018-07-25T05:15:10.906Z,991.29
2018-07-25T05:16:10.902Z,991.29
2018-07-25T05:17:10.896Z,991.33
2018-07-25T05:18:10.890Z,991.32
2018-07-25T05:19:10.885Z,991.25
2018-07-25T05:20:10.880Z,991.28
2018-07-25T05:21:10.872Z,991.28
2018-07-25T05:22:10.867Z,991.29
2018-07-25T05:23:10.889Z,991.32
2018-07-25T05:24:10.860Z,991.31
2018-07-25T05:25:10.851Z,991.32
2018-07-25T05:26:10.844Z,991.33
2018-07-25T05:27:10.839Z,991.38
2018-07-25T05:28:10.836Z,991.35
2018-07-25T05:29:10.827Z,991.38
2018-07-25T05:30:10.881Z,991.37
2018-07-25T05:31:10.814Z,991.39
2018-07-25T05:32:10.810Z,991.38
2018-07-25T05:33:10.806Z,991.38
2018-07-25T05:34:10.798Z,991.39
2018-07-25T05:35:10.806Z,991.42
2018-07-25T05:36:10.787Z,991.42
2018-07-25T05:37:10.785Z,991.44
2018-07-25T05:38:10.840Z,991.43
2018-07-25T05:39:10.771Z,991.45
2018-07-25T05:40:10.768Z,991.44
2018-07-25T05:41:10.761Z,991.44
2018-07-25T05:42:10.752Z,991.51
2018-07-25T05:43:10.748Z,991.48
2018-07-25T05:44:10.743Z,991.49
2018-07-25T05:45:10.736Z,991.56
2018-07-25T05:46:10.731Z,991.53
2018-07-25T05:47:10.725Z,991.53
2018-07-25T05:48:10.722Z,991.56
2018-07-25T05:49:10.721Z,991.59
2018-07-25T05:50:10.708Z,991.54
2018-07-25T05:51:10.702Z,991.58
2018-07-25T05:52:10.697Z,991.57
2018-07-25T05:53:10.692Z,991.59
2018-07-25T05:54:10.686Z,991.58
2018-07-25T05:55:10.681Z,991.58
2018-07-25T05:56:10.677Z,991.59
2018-07-25T05:57:10.669Z,991.61
2018-07-25T05:58:10.667Z,991.58
2018-07-25T05:59:10.658Z,991.60
2018-07-25T06:00:10.652Z,991.60
2018-07-25T06:01:10.648Z,991.62
2018-07-25T06:02:10.640Z,991.63
2018-07-25T06:03:10.716Z,991.68
2018-07-25T06:04:10.631Z,991.65
2018-07-25T06:05:10.627Z,991.65
2018-07-25T06:06:10.676Z,991.63
2018-07-25T06:07:10.613Z,991.60
2018-07-25T06:08:10.606Z,991.59
2018-07-25T06:09:10.603Z,991.63
2018-07-25T06:10:10.595Z,991.63
2018-07-25T06:11:10.589Z,991.60
2018-07-25T06:12:10.588Z,991.58
2018-07-25T06:13:10.583Z,991.59
2018-07-25T06:14:10.610Z,991.59
2018-07-25T06:15:10.569Z,991.58
2018-07-25T06:16:10.573Z,991.60
2018-07-25T06:17:10.557Z,991.66
2018-07-25T06:18:10.550Z,991.61
2018-07-25T06:19:10.545Z,991.63
2018-07-25T06:20:10.540Z,991.63
2018-07-25T06:21:10.532Z,991.64
2018-07-25T06:22:10.529Z,991.63
2018-07-25T06:23:10.524Z,991.63
2018-07-25T06:24:10.518Z,991.59
2018-07-25T06:25:10.512Z,991.60
2018-07-25T06:26:10.506Z,991.64
2018-07-25T06:27:10.500Z,991.66
2018-07-25T06:28:10.495Z,991.62
2018-07-25T06:29:10.488Z,991.66
2018-07-25T06:30:10.483Z,991.66
2018-07-25T06:31:10.480Z,991.69
2018-07-25T06:32:10.471Z,991.68
2018-07-25T06:33:10.470Z,991.68
2018-07-25T06:34:10.463Z,991.69
2018-07-25T06:35:10.456Z,991.68
2018-07-25T06:36:10.451Z,991.70
2018-07-25T06:37:10.455Z,991.71
2018-07-25T06:38:10.439Z,991.72
2018-07-25T06:39:10.438Z,991.75
2018-07-25T06:40:10.428Z,991.71
2018-07-25T06:41:10.423Z,991.72
2018-07-25T06:42:10.418Z,991.78
2018-07-25T06:43:10.442Z,991.76
2018-07-25T06:44:10.406Z,991.77
2018-07-25T06:45:10.401Z,991.77
2018-07-25T06:46:10.395Z,991.74
2018-07-25T06:47:10.389Z,991.75
2018-07-25T06:48:10.384Z,991.75
2018-07-25T06:49:10.381Z,991.76
2018-07-25T06:50:10.375Z,991.77
2018-07-25T06:51:10.367Z,991.82
2018-07-25T06:52:10.362Z,991.81
2018-07-25T06:53:10.356Z,991.89
2018-07-25T06:54:10.350Z,991.85
2018-07-25T06:55:10.349Z,991.86
2018-07-25T06:56:10.377Z,991.89
2018-07-25T06:57:10.376Z,991.86
2018-07-25T06:58:10.329Z,991.87
2018-07-25T06:59:10.323Z,991.89
2018-07-25T07:00:10.321Z,991.88
2018-07-25T07:01:10.313Z,991.86
2018-07-25T07:02:10.308Z,991.88
2018-07-25T07:03:10.302Z,991.91
2018-07-25T07:04:10.297Z,991.89
2018-07-25T07:05:10.293Z,991.90
2018-07-25T07:06:10.300Z,991.88
2018-07-25T07:07:10.281Z,991.88
2018-07-25T07:08:10.276Z,991.87
2018-07-25T07:09:10.271Z,991.89
2018-07-25T07:10:10.265Z,991.87
2018-07-25T07:11:10.259Z,991.89
2018-07-25T07:12:10.283Z,991.90
2018-07-25T07:13:10.250Z,991.91
2018-07-25T07:14:10.243Z,991.94
2018-07-25T07:15:10.244Z,991.92
2018-07-25T07:16:10.236Z,991.92
2018-07-25T07:17:10.231Z,991.96
2018-07-25T07:18:10.222Z,991.97
2018-07-25T07:19:10.215Z,991.93
2018-07-25T07:20:10.212Z,991.92
2018-07-25T07:21:10.208Z,991.93
2018-07-25T07:22:10.201Z,991.92
2018-07-25T07:23:10.201Z,991.96
2018-07-25T07:24:10.265Z,991.88
2018-07-25T07:25:10.187Z,991.88
2018-07-25T07:26:10.184Z,991.87
2018-07-25T07:27:10.177Z,991.88
2018-07-25T07:28:10.173Z,991.88
2018-07-25T07:29:10.172Z,991.88
2018-07-25T07:30:10.163Z,991.88
2018-07-25T07:31:10.155Z,991.89
2018-07-25T07:32:10.149Z,991.89
2018-07-25T07:33:10.145Z,991.91
2018-07-25T07:34:10.144Z,991.90
2018-07-25T07:35:10.148Z,991.88
2018-07-25T07:36:10.184Z,991.85
2018-07-25T07:37:10.128Z,991.92
2018-07-25T07:38:10.120Z,991.86
2018-07-25T07:39:10.115Z,991.84
2018-07-25T07:40:10.114Z,991.83
2018-07-25T07:41:10.105Z,991.86
2018-07-25T07:42:10.100Z,991.85
2018-07-25T07:43:10.094Z,991.85
2018-07-25T07:44:10.110Z,991.82
2018-07-25T07:45:10.085Z,991.88
2018-07-25T07:46:10.080Z,991.87
2018-07-25T07:47:10.075Z,991.82
2018-07-25T07:48:10.071Z,991.82
2018-07-25T07:49:10.066Z,991.82
2018-07-25T07:50:10.061Z,991.87
2018-07-25T07:51:10.087Z,991.87
2018-07-25T07:52:10.050Z,991.88
2018-07-25T07:53:10.067Z,991.87
2018-07-25T07:54:10.041Z,991.82
2018-07-25T07:55:10.036Z,991.84
2018-07-25T07:56:10.030Z,991.87
2018-07-25T07:57:10.026Z,991.84
2018-07-25T07:58:10.020Z,991.87
2018-07-25T07:59:10.016Z,991.87
2018-07-25T08:00:10.015Z,991.87
2018-07-25T08:01:10.007Z,991.87
2018-07-25T08:02:10.000Z,991.89
2018-07-25T08:03:09.998Z,991.87
2018-07-25T08:04:09.996Z,991.90
2018-07-25T08:05:09.998Z,991.90
2018-07-25T08:06:09.987Z,991.91
2018-07-25T08:07:09.977Z,991.96
2018-07-25T08:08:09.976Z,991.90
2018-07-25T08:09:09.968Z,991.87
2018-07-25T08:10:09.963Z,991.88
2018-07-25T08:11:09.960Z,991.89
2018-07-25T08:12:09.954Z,991.89
2018-07-25T08:13:09.950Z,991.94
2018-07-25T08:14:09.946Z,991.94
2018-07-25T08:15:09.938Z,991.92
2018-07-25T08:16:09.934Z,991.96
2018-07-25T08:17:09.932Z,991.97
2018-07-25T08:18:09.927Z,991.97
2018-07-25T08:19:09.920Z,991.94
2018-07-25T08:20:09.916Z,992.01
2018-07-25T08:21:09.968Z,992.00
2018-07-25T08:22:09.905Z,991.96
2018-07-25T08:23:09.902Z,991.97
2018-07-25T08:24:09.896Z,992.00
2018-07-25T08:25:09.892Z,991.98
2018-07-25T08:26:09.889Z,992.03
2018-07-25T08:27:09.888Z,992.03
2018-07-25T08:28:09.880Z,992.01
2018-07-25T08:29:09.876Z,991.99
2018-07-25T08:30:09.868Z,992.04
2018-07-25T08:31:09.865Z,991.99
2018-07-25T08:32:09.861Z,992.00
2018-07-25T08:33:09.857Z,992.03
2018-07-25T08:34:09.851Z,992.00
2018-07-25T08:35:09.850Z,991.97
2018-07-25T08:36:09.845Z,992.03
2018-07-25T08:37:09.839Z,992.01
2018-07-25T08:38:09.834Z,991.98
2018-07-25T08:39:09.830Z,992.01
2018-07-25T08:40:09.826Z,992.03
2018-07-25T08:41:09.872Z,992.02
2018-07-25T08:42:09.816Z,991.98
2018-07-25T08:43:09.813Z,992.00
2018-07-25T08:44:09.808Z,991.97
2018-07-25T08:45:09.802Z,992.00
2018-07-25T08:46:09.799Z,992.02
2018-07-25T08:47:09.794Z,991.99
2018-07-25T08:48:09.790Z,992.00
2018-07-25T08:49:09.786Z,991.97
2018-07-25T08:50:09.788Z,992.01
2018-07-25T08:51:09.776Z,991.98
2018-07-25T08:52:09.774Z,991.97
2018-07-25T08:53:09.768Z,991.96
2018-07-25T08:54:09.764Z,991.93
2018-07-25T08:55:09.762Z,991.94
2018-07-25T08:56:09.756Z,991.94
2018-07-25T08:57:09.751Z,991.95
2018-07-25T08:58:09.747Z,991.93
2018-07-25T08:59:09.742Z,991.93
2018-07-25T09:00:09.741Z,991.97
2018-07-25T09:01:09.737Z,991.95
2018-07-25T09:02:09.731Z,991.95
2018-07-25T09:03:09.734Z,991.92
2018-07-25T09:04:09.722Z,991.92
2018-07-25T09:05:09.719Z,991.94
2018-07-25T09:06:09.722Z,991.93
2018-07-25T09:07:09.708Z,991.94
2018-07-25T09:08:09.705Z,991.94
2018-07-25T09:09:09.703Z,991.94
2018-07-25T09:10:09.699Z,991.98
2018-07-25T09:11:09.693Z,991.92
2018-07-25T09:12:09.689Z,991.98
2018-07-25T09:13:09.705Z,991.94
2018-07-25T09:14:09.680Z,991.91
2018-07-25T09:15:09.679Z,991.92
2018-07-25T09:16:09.672Z,991.95
2018-07-25T09:17:09.669Z,991.93
2018-07-25T09:18:09.719Z,991.96
2018-07-25T09:19:09.660Z,991.94
2018-07-25T09:20:09.660Z,991.95
2018-07-25T09:21:09.652Z,991.94
2018-07-25T09:22:09.649Z,992.00
2018-07-25T09:23:09.644Z,991.94
2018-07-25T09:24:09.640Z,991.98
2018-07-25T09:25:09.672Z,991.98
2018-07-25T09:26:09.632Z,992.00
2018-07-25T09:27:09.628Z,992.06
2018-07-25T09:28:09.624Z,991.99
2018-07-25T09:29:09.619Z,992.00
2018-07-25T09:30:09.618Z,991.99
2018-07-25T09:31:09.612Z,992.00
2018-07-25T09:32:09.608Z,991.96
2018-07-25T09:33:09.606Z,991.96
2018-07-25T09:34:09.730Z,991.91
2018-07-25T09:35:09.596Z,991.95
2018-07-25T09:36:09.595Z,991.94
2018-07-25T09:37:09.590Z,991.90
2018-07-25T09:38:09.585Z,991.89
2018-07-25T09:39:09.583Z,991.91
2018-07-25T09:40:09.578Z,991.96
2018-07-25T09:41:09.620Z,991.89
2018-07-25T09:42:09.587Z,991.90
2018-07-25T09:43:09.567Z,991.91
2018-07-25T09:44:09.563Z,991.87
2018-07-25T09:45:09.561Z,991.89
2018-07-25T09:46:09.558Z,991.88
2018-07-25T09:47:09.645Z,991.87
2018-07-25T09:48:09.548Z,991.85
2018-07-25T09:49:09.559Z,991.88
2018-07-25T09:50:09.542Z,991.87
2018-07-25T09:51:09.555Z,991.85
2018-07-25T09:52:09.533Z,991.82
2018-07-25T09:53:09.597Z,991.81
2018-07-25T09:54:09.525Z,991.79
2018-07-25T09:55:09.521Z,991.83
2018-07-25T09:56:09.540Z,991.83
2018-07-25T09:57:09.513Z,991.79
2018-07-25T09:58:09.508Z,991.81
2018-07-25T09:59:09.506Z,991.79
2018-07-25T10:00:09.503Z,991.79
2018-07-25T10:01:09.660Z,991.82
2018-07-25T10:02:09.496Z,991.76
2018-07-25T10:03:09.492Z,991.77
2018-07-25T10:04:09.488Z,991.75
2018-07-25T10:05:09.485Z,991.77
2018-07-25T10:06:09.482Z,991.73
2018-07-25T10:07:09.511Z,991.70
2018-07-25T10:08:09.479Z,991.74
2018-07-25T10:09:09.485Z,991.69
2018-07-25T10:10:09.468Z,991.73
2018-07-25T10:11:09.481Z,991.74
2018-07-25T10:12:09.485Z,991.70
2018-07-25T10:13:09.457Z,991.69
2018-07-25T10:14:09.452Z,991.68
2018-07-25T10:15:09.486Z,991.66
2018-07-25T10:16:09.445Z,991.65
2018-07-25T10:17:09.444Z,991.63
2018-07-25T10:18:09.443Z,991.66
2018-07-25T10:19:09.433Z,991.66
2018-07-25T10:20:09.433Z,991.63
2018-07-25T10:21:09.429Z,991.62
2018-07-25T10:22:09.424Z,991.59
2018-07-25T10:23:09.421Z,991.58
2018-07-25T10:24:09.416Z,991.63
2018-07-25T10:25:09.414Z,991.57
2018-07-25T10:26:09.410Z,991.53
2018-07-25T10:27:09.437Z,991.57
2018-07-25T10:28:09.407Z,991.53
2018-07-25T10:29:09.414Z,991.53
2018-07-25T10:30:09.417Z,991.54
2018-07-25T10:31:09.395Z,991.50
2018-07-25T10:32:09.390Z,991.47
2018-07-25T10:33:09.388Z,991.49
2018-07-25T10:34:09.462Z,991.45
2018-07-25T10:35:09.399Z,991.42
2018-07-25T10:36:09.377Z,991.43
2018-07-25T10:37:09.376Z,991.47
2018-07-25T10:38:09.369Z,991.45
2018-07-25T10:39:09.412Z,991.46
2018-07-25T10:40:09.362Z,991.42
2018-07-25T10:41:09.361Z,991.39
2018-07-25T10:42:09.355Z,991.47
2018-07-25T10:43:09.353Z,991.39
2018-07-25T10:44:09.353Z,991.41
2018-07-25T10:45:09.347Z,991.40
2018-07-25T10:46:09.346Z,991.42
2018-07-25T10:47:09.342Z,991.36
2018-07-25T10:48:09.336Z,991.33
2018-07-25T10:49:09.334Z,991.33
2018-07-25T10:50:09.329Z,991.28
2018-07-25T10:51:09.326Z,991.27
2018-07-25T10:52:09.326Z,991.29
2018-07-25T10:53:09.320Z,991.24
2018-07-25T10:54:09.328Z,991.28
2018-07-25T10:55:09.323Z,991.23
2018-07-25T10:56:09.310Z,991.22
2018-07-25T10:57:09.310Z,991.25
2018-07-25T10:58:09.303Z,991.23
2018-07-25T10:59:09.300Z,991.24
2018-07-25T11:00:09.296Z,991.23
2018-07-25T11:01:09.294Z,991.23
2018-07-25T11:02:09.353Z,991.23
2018-07-25T11:03:09.287Z,991.17
2018-07-25T11:04:09.284Z,991.19
2018-07-25T11:05:09.282Z,991.17
2018-07-25T11:06:09.277Z,991.20
2018-07-25T11:07:09.273Z,991.20
2018-07-25T11:08:09.637Z,991.13
2018-07-25T11:09:09.267Z,991.19
2018-07-25T11:10:09.264Z,991.21
2018-07-25T11:11:09.262Z,991.23
2018-07-25T11:12:09.259Z,991.25
2018-07-25T11:13:09.255Z,991.26
2018-07-25T11:14:09.251Z,991.23
2018-07-25T11:15:09.252Z,991.20
2018-07-25T11:16:09.246Z,991.19
2018-07-25T11:17:09.242Z,991.17
2018-07-25T11:18:09.241Z,991.17
2018-07-25T11:19:09.236Z,991.16
2018-07-25T11:20:09.233Z,991.19
2018-07-25T11:21:09.230Z,991.13
2018-07-25T11:22:09.225Z,991.15
2018-07-25T11:23:09.250Z,991.11
2018-07-25T11:24:09.223Z,991.09
2018-07-25T11:25:09.217Z,991.17
2018-07-25T11:26:09.234Z,991.15
2018-07-25T11:27:09.209Z,991.09
2018-07-25T11:28:09.207Z,991.16
2018-07-25T11:29:09.203Z,991.09
2018-07-25T11:30:09.199Z,991.09
2018-07-25T11:31:09.197Z,991.09
2018-07-25T11:32:09.195Z,991.09
2018-07-25T11:33:09.196Z,991.12
2018-07-25T11:34:09.187Z,991.14
2018-07-25T11:35:09.184Z,991.10
2018-07-25T11:36:09.182Z,991.10
2018-07-25T11:37:09.179Z,991.10
2018-07-25T11:38:09.206Z,991.11
2018-07-25T11:39:09.171Z,991.05
2018-07-25T11:40:09.169Z,991.08
2018-07-25T11:41:09.165Z,991.06
2018-07-25T11:42:09.162Z,991.10
2018-07-25T11:43:09.158Z,991.09
2018-07-25T11:44:09.160Z,991.06
2018-07-25T11:45:09.153Z,991.04
2018-07-25T11:46:09.149Z,991.08
2018-07-25T11:47:09.150Z,991.08
2018-07-25T11:48:09.144Z,991.04
2018-07-25T11:49:09.140Z,991.05
2018-07-25T11:50:09.195Z,991.03
2018-07-25T11:51:09.135Z,991.04
2018-07-25T11:52:09.133Z,990.98
2018-07-25T11:53:09.130Z,991.02
2018-07-25T11:54:09.125Z,991.00
2018-07-25T11:55:09.120Z,991.02
2018-07-25T11:56:09.117Z,991.01
2018-07-25T11:57:09.116Z,990.96
2018-07-25T11:58:09.109Z,990.96
2018-07-25T11:59:09.108Z,990.98
2018-07-25T12:00:09.105Z,991.00
2018-07-25T12:01:09.165Z,990.96
2018-07-25T12:02:09.110Z,990.99
2018-07-25T12:03:09.095Z,990.96
2018-07-25T12:04:09.091Z,990.93
2018-07-25T12:05:09.088Z,990.95
2018-07-25T12:06:09.089Z,990.95
2018-07-25T12:07:09.081Z,990.93
2018-07-25T12:08:09.078Z,990.92
2018-07-25T12:09:09.077Z,990.94
2018-07-25T12:10:09.071Z,990.95
2018-07-25T12:11:09.068Z,990.93
2018-07-25T12:12:09.064Z,990.98
2018-07-25T12:13:09.062Z,990.97
2018-07-25T12:14:09.059Z,990.92
2018-07-25T12:15:09.054Z,990.94
2018-07-25T12:16:09.052Z,990.95
2018-07-25T12:17:09.051Z,990.95
2018-07-25T12:18:09.044Z,990.89
2018-07-25T12:19:09.041Z,990.89
2018-07-25T12:20:09.038Z,990.85
2018-07-25T12:21:09.077Z,990.89
2018-07-25T12:22:09.031Z,990.85
2018-07-25T12:23:09.028Z,990.88
2018-07-25T12:24:09.026Z,990.86
2018-07-25T12:25:09.022Z,990.82
2018-07-25T12:26:09.019Z,990.88
2018-07-25T12:27:09.014Z,990.82
2018-07-25T12:28:09.011Z,990.80